Time;durP1;ratioP1;P1;durP2;ratioP2;P2;SDS_P1;SDS_P2;PMS_P1;PMS_P2;Temp;Humidity;BMP_temperature;BMP_pressure;BME280_temperature;BME280_humidity;BME280_pressure;Samples;Min_cycle;Max_cycle;Signal;HPM_P1;HPM_P2
2022/05/16 00:00:03;;;;;;;6.22;2.13;;;;;;;20.72;70.03;100718.16;5053475;28;20053;-63
2022/05/16 00:02:38;;;;;;;7.68;2.38;;;;;;;20.36;71.08;100727.28;5048293;28;20045;-61
2022/05/16 00:05:06;;;;;;;5.60;2.15;;;;;;;20.19;72.08;100729.81;5054572;28;20049;-62
2022/05/16 00:07:33;;;;;;;5.97;2.30;;;;;;;20.29;72.24;100743.16;5044136;28;20049;-62
2022/05/16 00:10:01;;;;;;;6.13;2.50;;;;;;;20.54;72.15;100755.50;5050640;28;20527;-61
2022/05/16 00:12:28;;;;;;;5.93;2.70;;;;;;;20.37;72.55;100756.03;5044977;28;20061;-61
2022/05/16 00:14:55;;;;;;;12.63;3.42;;;;;;;20.40;74.37;100732.94;5047520;28;20049;-62
2022/05/16 00:17:23;;;;;;;15.13;3.33;;;;;;;20.17;75.91;100744.97;5040263;28;20060;-62
2022/05/16 00:19:51;;;;;;;9.02;3.60;;;;;;;20.03;77.30;100730.75;5037096;28;20060;-63
2022/05/16 00:22:18;;;;;;;10.35;3.30;;;;;;;19.80;78.56;100721.63;5034490;28;20057;-61
2022/05/16 00:24:45;;;;;;;16.10;3.58;;;;;;;19.98;77.30;100714.28;5051553;28;20053;-61
2022/05/16 00:27:13;;;;;;;9.55;3.58;;;;;;;19.99;78.00;100723.50;5053669;28;20049;-63
2022/05/16 00:29:40;;;;;;;12.63;3.60;;;;;;;19.76;79.16;100719.94;5052269;28;20057;-62
2022/05/16 00:32:08;;;;;;;18.80;4.15;;;;;;;19.78;79.74;100739.94;5054433;28;20061;-62
2022/05/16 00:34:36;;;;;;;8.70;3.35;;;;;;;19.70;80.28;100739.00;5047564;28;20068;-61
2022/05/16 00:37:04;;;;;;;10.07;3.47;;;;;;;19.79;80.65;100739.56;5032483;28;20129;-62
2022/05/16 00:39:31;;;;;;;10.90;3.35;;;;;;;19.87;79.88;100724.53;5039734;28;20056;-60
2022/05/16 00:41:59;;;;;;;11.30;3.40;;;;;;;19.76;81.27;100728.31;5069823;28;20064;-62
2022/05/16 00:44:26;;;;;;;11.38;4.05;;;;;;;19.93;80.66;100733.38;5079232;28;20049;-61
2022/05/16 00:46:53;;;;;;;10.40;3.63;;;;;;;19.74;81.28;100713.91;5046390;28;20045;-61
2022/05/16 00:49:27;;;;;;;12.48;4.05;;;;;;;19.72;81.47;100719.06;5047770;28;20379;-61
2022/05/16 00:51:58;;;;;;;11.77;3.88;;;;;;;19.74;81.57;100719.50;5085850;28;20059;-61
2022/05/16 00:54:30;;;;;;;10.18;3.90;;;;;;;19.57;82.65;100709.66;5051233;28;20049;-62
2022/05/16 00:57:02;;;;;;;8.13;3.42;;;;;;;19.79;81.91;100708.81;5043880;28;20045;-62
2022/05/16 00:59:35;;;;;;;9.25;3.13;;;;;;;19.64;82.52;100694.97;5052620;28;20049;-62
2022/05/16 01:04:48;;;;;;;11.20;3.45;;;;;;;19.63;81.13;100683.00;5040036;28;20049;-61
2022/05/16 01:07:24;;;;;;;6.65;3.05;;;;;;;19.83;78.88;100683.69;5039954;28;20539;-61
2022/05/16 01:09:51;;;;;;;7.70;3.25;;;;;;;19.99;78.65;100685.16;5044045;28;20060;-63
2022/05/16 01:12:20;;;;;;;8.55;3.15;;;;;;;19.59;79.83;100701.72;5050079;28;20049;-62
2022/05/16 01:14:55;;;;;;;10.60;3.67;;;;;;;19.40;81.74;100712.97;5066146;28;20512;-61
2022/05/16 01:17:23;;;;;;;9.60;3.45;;;;;;;19.71;80.09;100701.50;5083141;28;20064;-63
2022/05/16 01:19:53;;;;;;;7.03;2.88;;;;;;;19.59;80.25;100698.91;5063351;28;20680;-61
2022/05/16 01:22:24;;;;;;;6.00;2.80;;;;;;;19.61;80.35;100695.75;5052249;28;20052;-61
2022/05/16 01:24:52;;;;;;;8.50;3.35;;;;;;;19.48;80.17;100697.09;5064514;28;20423;-62
2022/05/16 01:27:20;;;;;;;13.90;3.50;;;;;;;19.50;79.91;100701.16;5050883;28;20464;-62
2022/05/16 01:29:49;;;;;;;10.23;3.63;;;;;;;19.56;80.69;100690.47;5045702;28;20053;-62
2022/05/16 01:32:18;;;;;;;8.77;3.42;;;;;;;19.86;78.53;100694.94;5041125;28;20054;-62
2022/05/16 01:34:45;;;;;;;9.48;3.42;;;;;;;19.67;78.95;100705.41;5049770;28;20056;-61
2022/05/16 01:37:13;;;;;;;7.10;3.35;;;;;;;19.54;79.38;100707.63;5047771;28;20040;-62
2022/05/16 01:39:40;;;;;;;7.53;3.10;;;;;;;19.46;79.79;100722.63;5057907;28;20056;-62
2022/05/16 01:42:08;;;;;;;8.07;3.30;;;;;;;19.32;80.76;100727.19;5050839;28;20495;-61
2022/05/16 01:44:35;;;;;;;6.95;3.28;;;;;;;19.43;80.39;100716.97;5050380;28;20060;-61
2022/05/16 01:47:03;;;;;;;11.82;3.60;;;;;;;19.49;79.92;100705.09;5044184;28;20041;-61
2022/05/16 01:49:30;;;;;;;11.27;3.72;;;;;;;19.69;78.90;100719.81;5086071;28;20080;-62
2022/05/16 01:51:58;;;;;;;9.23;3.20;;;;;;;19.53;80.10;100725.53;5054565;28;20053;-61
2022/05/16 01:54:25;;;;;;;11.48;3.70;;;;;;;19.33;80.75;100724.00;5056363;28;20048;-62
2022/05/16 01:56:53;;;;;;;9.88;3.63;;;;;;;19.47;79.99;100729.84;5048728;28;20045;-62
2022/05/16 01:59:20;;;;;;;10.82;3.53;;;;;;;19.42;80.20;100726.56;5050197;28;20068;-62
2022/05/16 02:01:47;;;;;;;9.18;3.63;;;;;;;19.40;79.76;100737.28;5038250;28;20064;-62
2022/05/16 02:04:15;;;;;;;8.48;3.85;;;;;;;19.28;81.03;100724.28;5051686;28;20480;-62
2022/05/16 02:06:42;;;;;;;11.35;3.60;;;;;;;19.31;81.01;100742.31;5056838;28;20049;-62
2022/05/16 02:09:09;;;;;;;9.45;3.85;;;;;;;19.42;80.26;100737.72;5055279;28;20057;-62
2022/05/16 02:11:36;;;;;;;9.73;3.63;;;;;;;19.45;80.59;100732.19;5055504;28;20049;-62
2022/05/16 02:14:04;;;;;;;13.45;3.92;;;;;;;19.54;79.96;100720.78;5052830;28;20057;-61
2022/05/16 02:16:31;;;;;;;7.25;3.60;;;;;;;19.52;80.22;100737.09;5046415;28;20055;-63
2022/05/16 02:18:59;;;;;;;10.57;4.05;;;;;;;19.32;80.43;100739.13;5052460;28;20072;-62
2022/05/16 02:26:59;;;;;;;9.85;3.72;;;;;;;19.50;80.45;100729.09;5047958;28;20060;-61
2022/05/16 02:29:26;;;;;;;9.98;4.25;;;;;;;19.38;80.62;100736.84;5056159;28;20052;-61
2022/05/16 02:31:54;;;;;;;8.63;4.65;;;;;;;19.40;80.65;100734.50;5056358;28;20067;-61
2022/05/16 02:34:21;;;;;;;9.73;4.22;;;;;;;19.53;80.18;100736.72;5054914;28;20064;-60
2022/05/16 02:36:50;;;;;;;11.32;4.13;;;;;;;19.58;79.95;100733.59;5056401;28;20148;-62
2022/05/16 02:39:18;;;;;;;31.27;4.97;;;;;;;19.57;79.36;100734.81;5042864;28;20639;-61
2022/05/16 02:41:45;;;;;;;12.35;4.53;;;;;;;19.68;79.08;100738.56;5042872;28;20084;-62
2022/05/16 02:44:13;;;;;;;9.30;4.47;;;;;;;19.75;78.81;100732.31;5048452;28;20057;-62
2022/05/16 02:46:42;;;;;;;12.63;4.95;;;;;;;19.71;78.81;100739.81;5047899;28;20049;-62
2022/05/16 02:49:10;;;;;;;11.05;4.97;;;;;;;19.72;79.20;100742.22;5053546;28;20049;-61
2022/05/16 02:51:37;;;;;;;12.38;5.15;;;;;;;19.88;78.00;100740.09;5054399;28;20559;-62
2022/05/16 02:54:05;;;;;;;12.40;5.00;;;;;;;19.87;77.74;100746.06;5051384;28;20046;-61
2022/05/16 02:56:33;;;;;;;11.65;5.30;;;;;;;19.94;77.53;100744.22;5047670;28;20046;-62
2022/05/16 02:59:00;;;;;;;16.60;5.00;;;;;;;19.92;78.04;100738.19;5046727;28;20468;-61
2022/05/16 03:01:29;;;;;;;13.48;5.43;;;;;;;19.89;77.86;100735.34;5050690;28;20060;-61
2022/05/16 03:03:57;;;;;;;11.43;4.82;;;;;;;20.13;76.77;100734.91;5055151;28;20072;-61
2022/05/16 03:06:24;;;;;;;11.15;5.35;;;;;;;20.11;76.43;100726.88;5052248;28;20409;-61
2022/05/16 03:08:51;;;;;;;13.77;5.13;;;;;;;20.28;75.46;100730.31;5046268;28;20397;-62
2022/05/16 03:11:18;;;;;;;14.75;5.72;;;;;;;20.28;75.66;100731.16;5055783;28;20045;-61
2022/05/16 03:13:46;;;;;;;12.07;4.55;;;;;;;20.25;75.83;100737.50;5055452;28;20049;-61
2022/05/16 03:16:13;;;;;;;16.10;4.80;;;;;;;20.20;75.62;100743.44;5055596;28;20056;-63
2022/05/16 03:18:41;;;;;;;14.43;5.15;;;;;;;20.25;76.05;100759.06;5074851;28;20444;-62
2022/05/16 03:21:08;;;;;;;15.57;5.78;;;;;;;20.10;76.95;100769.22;5042865;28;20048;-61
2022/05/16 03:23:35;;;;;;;14.48;6.05;;;;;;;19.95;77.43;100773.78;5065285;28;20057;-61
2022/05/16 03:26:02;;;;;;;14.68;6.45;;;;;;;20.37;75.35;100772.81;5054639;28;20052;-61
2022/05/16 03:28:30;;;;;;;13.07;6.43;;;;;;;19.98;76.73;100775.00;5045695;28;20052;-62
2022/05/16 03:30:59;;;;;;;14.68;5.63;;;;;;;19.84;78.43;100769.97;5040447;28;20665;-61
2022/05/16 03:33:27;;;;;;;11.60;6.53;;;;;;;19.51;79.13;100753.03;5042617;28;20065;-62
2022/05/16 03:35:58;;;;;;;17.63;7.13;;;;;;;19.40;79.71;100766.03;5046377;28;20438;-61
2022/05/16 03:41:13;;;;;;;16.98;6.63;;;;;;;19.51;79.48;100785.78;5059737;28;20053;-61
2022/05/16 03:43:41;;;;;;;17.02;7.18;;;;;;;19.48;79.75;100784.53;5038742;28;20467;-61
2022/05/16 03:46:09;;;;;;;11.30;6.40;;;;;;;19.62;78.84;100793.16;5045704;28;20086;-61
2022/05/16 03:48:37;;;;;;;15.48;6.93;;;;;;;19.78;77.82;100812.63;5077382;28;20052;-61
2022/05/16 03:51:05;;;;;;;21.05;6.93;;;;;;;19.76;78.10;100815.78;5054483;28;20061;-61
2022/05/16 03:53:45;;;;;;;15.30;7.40;;;;;;;19.69;78.66;100818.44;5054810;28;20049;-62
2022/05/16 03:56:18;;;;;;;14.52;6.40;;;;;;;19.58;79.55;100825.03;5050902;28;20826;-62
2022/05/16 03:58:45;;;;;;;15.55;6.80;;;;;;;19.56;79.93;100817.00;5048030;28;20060;-62
2022/05/16 04:01:13;;;;;;;14.18;7.30;;;;;;;19.54;79.57;100819.38;5042889;28;20064;-61
2022/05/16 04:03:40;;;;;;;21.58;7.70;;;;;;;19.51;79.72;100827.69;5045865;28;20049;-61
2022/05/16 04:06:08;;;;;;;15.55;6.68;;;;;;;19.46;80.44;100822.38;5035162;28;20049;-61
2022/05/16 04:08:35;;;;;;;14.98;6.28;;;;;;;19.82;78.94;100822.66;5079017;28;20049;-62
2022/05/16 04:11:04;;;;;;;19.52;6.93;;;;;;;19.86;78.34;100826.34;5049910;28;20059;-61
2022/05/16 04:13:32;;;;;;;15.07;7.22;;;;;;;19.83;78.27;100834.66;5054459;28;20060;-62
2022/05/16 04:16:00;;;;;;;17.05;7.65;;;;;;;19.61;79.48;100832.66;5052900;28;20060;-61
2022/05/16 04:18:32;;;;;;;17.15;7.25;;;;;;;19.96;78.09;100855.66;5054236;28;20048;-62
2022/05/16 04:21:00;;;;;;;18.85;7.20;;;;;;;19.84;78.66;100853.84;5041205;28;20415;-62
2022/05/16 04:23:27;;;;;;;14.75;7.22;;;;;;;19.98;77.69;100864.47;5055392;28;20072;-62
2022/05/16 04:25:55;;;;;;;18.10;7.57;;;;;;;20.05;77.35;100867.41;5048542;28;20052;-62
2022/05/16 04:28:22;;;;;;;16.02;7.15;;;;;;;19.92;78.26;100866.78;5043607;28;20041;-62
2022/05/16 04:30:49;;;;;;;15.50;7.88;;;;;;;19.73;79.66;100864.06;5049954;28;20053;-61
2022/05/16 04:33:18;;;;;;;17.45;7.72;;;;;;;19.85;78.52;100865.84;5044629;28;20757;-61
2022/05/16 04:35:45;;;;;;;18.95;7.82;;;;;;;20.01;77.85;100875.72;5054078;28;20052;-62
2022/05/16 04:38:12;;;;;;;18.60;8.13;;;;;;;20.02;78.29;100873.75;5074503;28;20065;-61
2022/05/16 04:42:40;;;;;;;20.38;7.93;;;;;;;19.93;78.35;100882.38;5048192;28;20057;-61
2022/05/16 04:43:27;;;;;;;14.27;7.47;;;;;;;20.07;77.89;100895.78;5035065;28;20068;-62
2022/05/16 04:45:54;;;;;;;17.67;7.93;;;;;;;19.98;78.38;100900.81;5077601;28;20148;-61
2022/05/16 04:48:22;;;;;;;16.90;8.45;;;;;;;19.87;78.63;100911.84;5080181;28;20051;-62
2022/05/16 04:50:49;;;;;;;18.27;8.50;;;;;;;19.91;78.69;100912.69;5043957;28;20520;-62
2022/05/16 04:53:16;;;;;;;17.23;7.80;;;;;;;20.01;77.94;100922.47;5080463;28;20358;-61
2022/05/16 04:55:44;;;;;;;14.23;7.88;;;;;;;20.17;77.22;100940.78;5053373;28;20064;-61
2022/05/16 04:58:11;;;;;;;18.80;8.48;;;;;;;20.04;77.63;100933.72;5034913;28;20630;-62
2022/05/16 05:00:39;;;;;;;20.30;9.10;;;;;;;20.20;77.44;100949.59;5053832;28;20053;-62
2022/05/16 05:03:06;;;;;;;17.80;9.30;;;;;;;20.11;77.26;100947.84;5051129;28;20412;-61
2022/05/16 05:05:35;;;;;;;13.75;8.73;;;;;;;19.97;78.00;100953.16;5053706;28;20388;-61
2022/05/16 05:08:02;;;;;;;15.45;8.38;;;;;;;20.08;76.81;100965.34;5050199;28;20049;-62
2022/05/16 05:16:09;;;;;;;18.92;9.85;;;;;;;19.74;78.56;100957.06;5035051;28;20060;-62
2022/05/16 05:18:37;;;;;;;18.45;8.38;;;;;;;19.85;77.65;100953.34;5042760;28;20465;-62
2022/05/16 05:21:05;;;;;;;17.48;10.10;;;;;;;19.78;78.22;100953.19;5039747;28;20044;-62
2022/05/16 05:23:34;;;;;;;16.55;8.80;;;;;;;19.86;77.53;100954.94;5046430;28;20060;-61
2022/05/16 05:26:02;;;;;;;16.17;9.45;;;;;;;19.84;78.10;100962.09;5050708;28;20054;-62
2022/05/16 05:28:29;;;;;;;17.75;10.25;;;;;;;20.11;76.35;100966.59;5052598;28;20045;-61
2022/05/16 05:30:57;;;;;;;14.52;8.52;;;;;;;20.08;76.71;100970.94;5042396;28;20057;-63
2022/05/16 05:33:25;;;;;;;16.58;8.30;;;;;;;20.13;76.12;100976.25;5078340;28;20076;-61
2022/05/16 05:35:52;;;;;;;15.07;9.13;;;;;;;20.29;75.50;100989.34;5046060;28;20067;-62
2022/05/16 05:38:20;;;;;;;19.27;9.45;;;;;;;20.42;74.64;100982.34;5071586;28;20504;-62
2022/05/16 05:40:49;;;;;;;23.88;8.60;;;;;;;20.34;74.69;100983.44;5032367;28;20045;-62
2022/05/16 05:43:16;;;;;;;15.10;9.13;;;;;;;20.40;74.54;100993.16;5040966;28;20061;-62
2022/05/16 05:45:44;;;;;;;14.50;9.10;;;;;;;20.35;74.25;101008.22;5047852;28;20067;-61
2022/05/16 05:48:11;;;;;;;22.65;10.35;;;;;;;20.69;73.46;101007.25;5049529;28;20056;-63
2022/05/16 05:50:39;;;;;;;19.13;9.48;;;;;;;20.24;74.85;101015.63;5032108;28;20065;-61
2022/05/16 05:53:06;;;;;;;16.27;10.48;;;;;;;20.09;75.44;101022.91;5048932;28;20380;-62
2022/05/16 05:55:33;;;;;;;22.13;10.48;;;;;;;20.09;76.56;101033.28;5053559;28;20053;-62
2022/05/16 05:58:00;;;;;;;23.02;11.00;;;;;;;20.30;75.77;101053.31;5049374;28;20484;-62
2022/05/16 06:00:28;;;;;;;16.77;10.40;;;;;;;20.26;76.02;101049.63;5042463;28;20053;-62
2022/05/16 06:02:56;;;;;;;15.85;8.75;;;;;;;20.39;74.85;101061.47;5051908;28;20049;-62
2022/05/16 06:05:23;;;;;;;21.08;11.73;;;;;;;20.38;75.07;101048.66;5053985;28;20053;-62
2022/05/16 06:07:51;;;;;;;26.63;14.70;;;;;;;20.34;75.74;101047.78;5040322;28;20056;-62
2022/05/16 06:10:25;;;;;;;18.20;12.00;;;;;;;20.26;75.22;101049.63;5050643;28;20069;-62
2022/05/16 06:13:40;;;;;;;16.10;10.18;;;;;;;20.30;75.06;101063.69;5032547;28;20531;-63
2022/05/16 06:16:08;;;;;;;16.10;8.25;;;;;;;20.49;73.76;101067.25;5050488;28;20053;-62
2022/05/16 06:18:36;;;;;;;19.45;10.05;;;;;;;20.71;72.67;101072.06;5055626;28;20049;-61
2022/05/16 06:21:04;;;;;;;20.95;9.93;;;;;;;20.62;73.00;101065.09;5057574;28;20056;-61
2022/05/16 06:23:31;;;;;;;19.80;9.93;;;;;;;20.52;72.98;101065.72;5056790;28;20051;-62
2022/05/16 06:26:00;;;;;;;16.15;9.77;;;;;;;20.37;73.49;101069.41;5055423;28;20059;-62
2022/05/16 06:28:28;;;;;;;16.80;9.98;;;;;;;20.06;74.73;101084.38;5056363;28;20065;-63
2022/05/16 06:30:56;;;;;;;19.08;10.00;;;;;;;20.06;74.63;101095.56;5052516;28;20338;-69
2022/05/16 06:33:26;;;;;;;17.67;9.50;;;;;;;20.34;73.64;101084.16;5040468;28;20045;-69
2022/05/16 06:35:53;;;;;;;18.27;10.15;;;;;;;20.70;72.04;101092.03;5061978;28;20044;-68
2022/05/16 06:38:23;;;;;;;19.17;10.48;;;;;;;20.43;72.47;101087.53;5059182;28;20048;-66
2022/05/16 06:40:51;;;;;;;17.98;9.20;;;;;;;20.61;72.02;101099.84;5061340;28;20063;-68
2022/05/16 06:43:21;;;;;;;19.77;9.13;;;;;;;20.78;71.74;101102.19;5054177;28;20052;-68
2022/05/16 06:45:49;;;;;;;15.33;8.90;;;;;;;20.91;70.94;101115.63;5068333;28;20135;-68
2022/05/16 06:48:17;;;;;;;16.13;9.98;;;;;;;20.68;71.07;101119.59;5054828;28;20132;-66
2022/05/16 06:50:45;;;;;;;18.60;9.13;;;;;;;20.81;70.83;101113.47;5048475;28;20390;-68
2022/05/16 06:53:15;;;;;;;14.82;9.82;;;;;;;20.42;71.21;101111.91;5049906;28;20469;-68
2022/05/16 06:55:42;;;;;;;17.43;9.07;;;;;;;21.15;69.02;101126.47;5046085;28;20072;-65
2022/05/16 06:58:10;;;;;;;22.17;8.95;;;;;;;21.18;67.73;101128.53;5055423;28;20314;-65
2022/05/16 07:00:38;;;;;;;16.73;7.97;;;;;;;20.83;68.25;101135.47;5059853;28;20519;-65
2022/05/16 07:03:05;;;;;;;21.65;8.05;;;;;;;20.96;68.42;101145.31;5055876;28;20064;-66
2022/05/16 07:05:46;;;;;;;19.20;7.50;;;;;;;21.11;67.48;101153.63;5077479;28;20578;-67
2022/05/16 07:08:15;;;;;;;15.40;9.13;;;;;;;21.23;66.11;101152.63;5054099;28;20049;-67
2022/05/16 07:10:42;;;;;;;15.90;8.27;;;;;;;21.34;66.56;101164.03;5066845;28;20049;-67
2022/05/16 07:13:10;;;;;;;24.50;8.15;;;;;;;21.00;65.98;101163.03;5065446;28;20041;-68
2022/05/16 07:15:37;;;;;;;13.75;7.07;;;;;;;20.94;66.68;101167.28;5055537;28;20439;-67
2022/05/16 07:18:05;;;;;;;13.10;7.28;;;;;;;20.94;66.19;101167.28;5057893;28;20582;-68
2022/05/16 07:20:37;;;;;;;20.17;7.60;;;;;;;20.97;67.02;101172.16;5063691;28;20111;-67
2022/05/16 07:23:05;;;;;;;16.05;7.93;;;;;;;20.98;66.57;101173.75;5055949;28;20060;-66
2022/05/16 07:27:56;;;;;;;15.30;7.80;;;;;;;21.38;65.80;101176.91;5053073;28;20057;-68
2022/05/16 07:28:21;;;;;;;18.13;8.60;;;;;;;21.49;65.38;101183.50;5052217;28;20048;-67
2022/05/16 07:30:49;;;;;;;14.50;7.43;;;;;;;21.58;65.10;101184.06;5053637;28;20164;-67
2022/05/16 07:33:20;;;;;;;16.77;7.95;;;;;;;21.59;65.27;101182.84;5060414;28;20052;-66
2022/05/16 07:35:50;;;;;;;17.30;7.72;;;;;;;21.67;64.50;101190.19;5075310;28;20056;-68
2022/05/16 07:38:19;;;;;;;18.27;7.60;;;;;;;21.69;64.32;101195.44;5054313;28;20049;-66
2022/05/16 07:40:46;;;;;;;21.75;7.75;;;;;;;21.78;64.16;101193.19;5047663;28;20073;-66
2022/05/16 07:43:15;;;;;;;17.33;6.88;;;;;;;21.81;63.51;101200.88;5074186;28;20048;-67
2022/05/16 07:45:43;;;;;;;16.20;7.10;;;;;;;21.80;63.56;101210.44;5059558;28;20052;-66
2022/05/16 07:48:12;;;;;;;12.88;6.15;;;;;;;21.73;62.23;101202.72;5053978;28;20056;-67
2022/05/16 07:50:40;;;;;;;15.02;6.93;;;;;;;22.04;61.48;101202.41;5043547;28;20056;-66
2022/05/16 07:53:11;;;;;;;13.82;5.72;;;;;;;21.45;61.11;101201.44;5044657;28;20048;-68
2022/05/16 07:55:41;;;;;;;13.68;5.80;;;;;;;21.00;62.62;101213.44;5053956;28;20060;-65
2022/05/16 07:58:08;;;;;;;11.75;5.85;;;;;;;21.25;61.89;101209.91;5051054;28;20576;-66
2022/05/16 08:00:36;;;;;;;11.32;5.43;;;;;;;21.17;60.73;101222.19;5047823;28;20063;-66
2022/05/16 08:03:04;;;;;;;10.95;5.38;;;;;;;21.14;61.17;101219.31;5028496;28;20052;-66
2022/05/16 08:05:34;;;;;;;15.52;5.63;;;;;;;21.11;60.91;101217.25;5059337;28;20051;-66
2022/05/16 08:10:47;;;;;;;11.18;4.93;;;;;;;21.25;60.24;101226.72;5051954;28;20053;-65
2022/05/16 08:13:15;;;;;;;10.35;4.50;;;;;;;21.04;60.05;101222.72;5066702;28;20059;-66
2022/05/16 08:15:43;;;;;;;12.10;4.57;;;;;;;20.89;60.98;101227.22;5057611;28;20048;-66
2022/05/16 08:18:12;;;;;;;14.32;4.82;;;;;;;21.17;60.07;101222.19;5054744;28;20045;-65
2022/05/16 08:20:43;;;;;;;11.40;5.13;;;;;;;21.46;59.29;101220.69;5055901;28;20495;-66
2022/05/16 08:23:12;;;;;;;12.15;5.10;;;;;;;21.70;58.10;101230.69;5067112;28;20041;-67
2022/05/16 08:25:39;;;;;;;11.00;4.60;;;;;;;21.62;57.65;101232.56;5055096;28;20049;-66
2022/05/16 08:28:07;;;;;;;13.50;4.90;;;;;;;21.50;58.39;101234.75;5052257;28;20049;-66
2022/05/16 08:30:35;;;;;;;9.43;4.53;;;;;;;21.22;58.68;101240.66;5082184;28;20400;-67
2022/05/16 08:33:02;;;;;;;12.63;4.95;;;;;;;21.04;58.74;101240.31;5035679;28;20057;-67
2022/05/16 08:35:30;;;;;;;10.13;4.82;;;;;;;21.21;58.85;101241.84;5049233;28;20064;-66
2022/05/16 08:40:50;;;;;;;16.77;4.45;;;;;;;20.96;58.93;101244.16;5051740;28;20206;-66
2022/05/16 08:43:43;;;;;;;13.95;4.70;;;;;;;21.29;58.38;101259.63;5049026;28;20049;-65
2022/05/16 08:46:31;;;;;;;9.27;4.45;;;;;;;21.24;59.24;101255.13;5037823;28;20056;-65
2022/05/16 08:49:08;;;;;;;12.10;4.78;;;;;;;21.42;59.05;101256.25;5032010;28;20053;-64
2022/05/16 08:51:37;;;;;;;14.07;5.47;;;;;;;21.66;58.36;101260.66;5056217;28;20056;-65
2022/05/16 08:54:10;;;;;;;18.27;5.40;;;;;;;21.54;58.68;101255.25;5053403;28;20052;-65
2022/05/16 08:56:40;;;;;;;10.38;5.03;;;;;;;21.67;58.78;101253.88;5054846;28;20604;-64
2022/05/16 08:59:13;;;;;;;14.75;5.28;;;;;;;21.67;59.49;101262.28;5061061;28;20049;-64
2022/05/16 09:01:47;;;;;;;15.55;5.50;;;;;;;21.90;60.00;101269.50;5049971;28;20052;-65
2022/05/16 09:04:21;;;;;;;15.27;5.70;;;;;;;21.59;61.56;101268.94;5041867;28;20048;-64
2022/05/16 09:06:55;;;;;;;13.07;5.95;;;;;;;21.66;61.70;101271.88;5050835;28;20056;-71
2022/05/16 09:09:27;;;;;;;10.82;5.45;;;;;;;;;;5052117;28;20049;-69
2022/05/16 09:12:09;;;;;;;15.68;5.43;;;;;;;21.92;60.25;101283.97;5058405;28;20859;-71
2022/05/16 09:15:03;;;;;;;13.82;5.63;;;;;;;21.81;60.52;101276.59;5054421;28;20123;-72
2022/05/16 09:17:55;;;;;;;12.65;5.50;;;;;;;21.93;60.89;101285.59;5033928;28;20063;-69
2022/05/16 09:20:27;;;;;;;15.90;5.90;;;;;;;21.83;61.47;101294.66;5048450;28;20420;-70
2022/05/16 09:22:57;;;;;;;11.40;5.93;;;;;;;21.82;61.48;101298.66;5046847;28;20515;-69
2022/05/16 09:25:29;;;;;;;20.15;5.95;;;;;;;21.90;61.47;101294.75;5059446;28;20060;-70
2022/05/16 09:30:47;;;;;;;13.63;6.10;;;;;;;21.92;62.08;101300.81;5050370;28;20055;-70
2022/05/16 09:33:18;;;;;;;11.77;5.75;;;;;;;22.05;62.70;101299.44;5063559;28;20052;-70
2022/05/16 09:36:05;;;;;;;14.57;5.90;;;;;;;22.00;61.65;101305.34;5085135;28;20124;-71
2022/05/16 09:38:33;;;;;;;11.73;5.15;;;;;;;21.63;62.30;101303.47;5052629;28;20044;-70
2022/05/16 09:41:03;;;;;;;17.00;5.80;;;;;;;21.79;62.87;101304.19;5041247;28;20049;-70
2022/05/16 09:43:41;;;;;;;15.45;5.70;;;;;;;21.81;61.87;101313.06;5057334;28;20040;-70
2022/05/16 09:46:27;;;;;;;13.65;5.60;;;;;;;22.28;60.64;101313.41;5047068;28;20060;-69
2022/05/16 09:49:02;;;;;;;12.25;5.65;;;;;;;21.96;60.51;101315.72;5060065;28;20494;-69
2022/05/16 09:51:30;;;;;;;16.38;7.72;;;;;;;22.28;60.37;101327.44;5047322;28;20064;-70
2022/05/16 09:54:11;;;;;;;18.48;6.40;;;;;;;22.70;58.24;101324.47;5055115;28;20053;-69
2022/05/16 09:56:58;;;;;;;13.93;5.68;;;;;;;22.04;59.18;101317.44;5055273;28;20048;-68
2022/05/16 09:59:54;;;;;;;13.50;5.78;;;;;;;22.21;59.38;101314.09;5066739;28;20055;-70
2022/05/16 10:02:37;;;;;;;12.90;5.68;;;;;;;22.51;58.42;101322.56;5084149;28;20122;-70
2022/05/16 10:05:31;;;;;;;9.75;4.80;;;;;;;22.19;59.03;101327.69;5070437;28;20144;-72
2022/05/16 10:08:05;;;;;;;19.23;5.95;;;;;;;22.33;59.67;101321.50;5057353;28;20128;-73
2022/05/16 10:10:36;;;;;;;14.57;5.55;;;;;;;22.27;59.28;101332.25;5048459;28;20045;-71
2022/05/16 10:13:05;;;;;;;11.85;5.53;;;;;;;22.29;60.11;101327.06;5060429;27;20056;-72
2022/05/16 10:15:35;;;;;;;13.37;6.47;;;;;;;22.38;58.69;101328.78;5031255;28;20053;-70
2022/05/16 10:18:05;;;;;;;13.33;6.20;;;;;;;22.11;59.40;101330.75;5048211;28;20045;-71
2022/05/16 10:20:39;;;;;;;16.38;6.32;;;;;;;22.37;58.97;101335.59;5050772;28;20051;-70
2022/05/16 10:23:12;;;;;;;14.05;6.15;;;;;;;22.39;59.20;101334.00;5051711;28;20052;-71
2022/05/16 10:25:45;;;;;;;11.55;5.70;;;;;;;22.68;58.05;101327.69;5050763;28;20052;-69
2022/05/16 10:28:28;;;;;;;9.82;4.90;;;;;;;22.15;57.27;101328.84;5051325;28;20071;-71
2022/05/16 10:33:45;;;;;;;12.85;5.47;;;;;;;22.31;58.55;101321.06;5073946;28;20049;-72
2022/05/16 10:36:23;;;;;;;16.63;6.60;;;;;;;21.95;59.32;101332.94;5062059;28;20048;-72
2022/05/16 10:38:54;;;;;;;11.35;5.40;;;;;;;21.76;59.88;101332.97;5035384;28;20071;-69
2022/05/16 10:41:27;;;;;;;10.45;5.40;;;;;;;22.26;58.27;101327.00;5052424;28;20037;-68
2022/05/16 10:44:02;;;;;;;10.10;5.32;;;;;;;22.86;57.00;101333.50;5048961;28;20060;-69
2022/05/16 10:46:35;;;;;;;14.27;5.43;;;;;;;22.74;57.02;101326.13;5082203;28;20057;-69
2022/05/16 10:49:03;;;;;;;15.77;6.40;;;;;;;22.92;56.39;101329.19;5057603;28;20170;-69
2022/05/16 10:52:25;;;;;;;11.40;5.65;;;;;;;22.71;56.60;101328.91;5054125;28;20045;-73
2022/05/16 10:54:52;;;;;;;16.38;6.22;;;;;;;22.91;56.57;101325.56;5015608;28;20053;-72
2022/05/16 10:57:53;;;;;;;17.58;6.40;;;;;;;22.84;55.57;101333.09;5008741;28;20481;-70
2022/05/16 11:00:33;;;;;;;12.27;4.97;;;;;;;22.72;55.05;101330.50;4996770;28;20132;-71
2022/05/16 11:03:10;;;;;;;13.60;5.55;;;;;;;23.06;54.80;101324.56;5014294;28;20050;-70
2022/05/16 11:06:14;;;;;;;11.68;6.05;;;;;;;23.05;55.20;101317.28;5008212;28;20069;-70
2022/05/16 11:08:53;;;;;;;14.15;5.10;;;;;;;23.22;54.18;101321.53;5056901;28;20380;-68
2022/05/16 11:11:33;;;;;;;10.60;5.25;;;;;;;23.30;54.04;101321.25;5085506;28;20045;-70
2022/05/16 11:14:18;;;;;;;10.50;4.63;;;;;;;23.48;53.83;101320.63;5067103;28;20063;-70
2022/05/16 11:16:50;;;;;;;13.15;5.05;;;;;;;23.67;53.40;101315.59;5029370;28;20072;-70
2022/05/16 11:19:40;;;;;;;11.00;5.03;;;;;;;23.98;51.25;101311.44;5079898;28;20048;-68
2022/05/16 11:22:31;;;;;;;10.50;4.57;;;;;;;23.91;50.94;101323.44;5057306;28;20060;-64
2022/05/16 11:25:30;;;;;;;10.40;5.07;;;;;;;23.28;51.05;101339.69;5057125;28;20057;-63
2022/05/16 11:28:14;;;;;;;16.73;5.93;;;;;;;23.05;51.74;101322.91;5046986;28;20045;-63
2022/05/16 11:31:07;;;;;;;11.52;6.80;;;;;;;23.14;52.42;101317.81;5055206;28;20519;-64
2022/05/16 11:33:50;;;;;;;13.25;8.25;;;;;;;23.71;50.24;101315.63;5043371;28;20056;-63
2022/05/16 11:36:47;;;;;;;15.90;5.40;;;;;;;23.41;50.74;101315.75;5046454;28;20050;-63
2022/05/16 11:39:22;;;;;;;9.25;4.45;;;;;;;23.89;50.01;101308.97;5053769;28;20405;-64
2022/05/16 11:42:16;;;;;;;9.25;3.95;;;;;;;23.49;50.73;101313.78;5075027;28;20060;-64
2022/05/16 11:45:13;;;;;;;9.77;3.95;;;;;;;23.70;50.46;101320.44;5062040;28;20495;-64
2022/05/16 11:47:40;;;;;;;7.18;3.25;;;;;;;23.30;50.38;101307.19;5068001;28;20067;-64
2022/05/16 11:50:34;;;;;;;8.35;3.17;;;;;;;23.72;49.35;101306.81;5046747;28;20041;-66
2022/05/16 11:53:18;;;;;;;7.30;3.08;;;;;;;23.90;49.40;101295.72;5077127;28;20073;-64
2022/05/16 12:01:37;;;;;;;7.75;3.40;;;;;;;23.58;49.14;101289.78;5045102;28;20084;-64
2022/05/16 12:04:13;;;;;;;7.35;3.08;;;;;;;23.55;49.82;101296.22;5071467;28;20049;-64
2022/05/16 12:06:48;;;;;;;6.65;2.80;;;;;;;24.14;48.26;101290.31;5052923;28;20086;-64
2022/05/16 12:09:24;;;;;;;7.60;3.40;;;;;;;24.13;48.44;101285.84;5073591;28;20052;-64
2022/05/16 12:12:11;;;;;;;6.05;2.70;;;;;;;24.59;48.30;101277.69;5052528;28;20054;-65